sensor_id;sensor_type;location;lat;lon;timestamp;pressure;altitude;pressure_sealevel;temperature;humidity
6343;BME280;3204;42.698;23.298;2023-05-22T00:02:03;94659.25;;;15.32;84.76
6343;BME280;3204;42.698;23.298;2023-05-22T00:04:29;94654.13;;;15.30;84.93
6343;BME280;3204;42.698;23.298;2023-05-22T00:06:55;94659.84;;;15.37;84.83
6343;BME280;3204;42.698;23.298;2023-05-22T00:09:20;94650.94;;;15.40;84.13
6343;BME280;3204;42.698;23.298;2023-05-22T00:11:46;94656.66;;;15.35;84.74
6343;BME280;3204;42.698;23.298;2023-05-22T00:14:11;94655.28;;;15.29;85.04
6343;BME280;3204;42.698;23.298;2023-05-22T00:16:39;94658.13;;;15.33;85.01
6343;BME280;3204;42.698;23.298;2023-05-22T00:19:05;94663.94;;;15.43;84.46
6343;BME280;3204;42.698;23.298;2023-05-22T00:21:36;94656.53;;;15.44;84.20
6343;BME280;3204;42.698;23.298;2023-05-22T00:24:02;94656.63;;;15.47;84.17
6343;BME280;3204;42.698;23.298;2023-05-22T00:26:28;94659.22;;;15.56;83.60
6343;BME280;3204;42.698;23.298;2023-05-22T00:28:53;94665.50;;;15.56;83.21
6343;BME280;3204;42.698;23.298;2023-05-22T00:31:19;94663.91;;;15.55;83.59
6343;BME280;3204;42.698;23.298;2023-05-22T00:33:44;94657.81;;;15.62;83.31
6343;BME280;3204;42.698;23.298;2023-05-22T00:36:10;94674.78;;;15.67;82.91
6343;BME280;3204;42.698;23.298;2023-05-22T00:38:35;94665.78;;;15.67;82.72
6343;BME280;3204;42.698;23.298;2023-05-22T00:41:03;94664.19;;;15.66;82.92
6343;BME280;3204;42.698;23.298;2023-05-22T00:43:28;94668.50;;;15.67;82.71
6343;BME280;3204;42.698;23.298;2023-05-22T00:45:54;94672.56;;;15.57;83.38
6343;BME280;3204;42.698;23.298;2023-05-22T00:48:20;94670.75;;;15.49;83.27
6343;BME280;3204;42.698;23.298;2023-05-22T00:50:49;94665.28;;;15.49;83.21
6343;BME280;3204;42.698;23.298;2023-05-22T00:53:15;94667.00;;;15.54;83.04
6343;BME280;3204;42.698;23.298;2023-05-22T00:55:42;94667.00;;;15.42;83.69
6343;BME280;3204;42.698;23.298;2023-05-22T00:58:10;94661.75;;;15.49;83.51
6343;BME280;3204;42.698;23.298;2023-05-22T01:00:39;94667.47;;;15.44;84.04
6343;BME280;3204;42.698;23.298;2023-05-22T01:03:06;94663.13;;;15.43;84.02
6343;BME280;3204;42.698;23.298;2023-05-22T01:05:34;94656.78;;;15.39;83.86
6343;BME280;3204;42.698;23.298;2023-05-22T01:08:00;94652.34;;;15.34;84.04
6343;BME280;3204;42.698;23.298;2023-05-22T01:10:26;94649.13;;;15.32;84.64
6343;BME280;3204;42.698;23.298;2023-05-22T01:15:34;94661.56;;;15.30;84.50
6343;BME280;3204;42.698;23.298;2023-05-22T01:18:12;94653.69;;;15.28;84.56
6343;BME280;3204;42.698;23.298;2023-05-22T01:20:53;94660.19;;;15.36;84.37
6343;BME280;3204;42.698;23.298;2023-05-22T01:31:35;94647.66;;;15.23;85.26
6343;BME280;3204;42.698;23.298;2023-05-22T01:34:02;94655.16;;;15.38;84.72
6343;BME280;3204;42.698;23.298;2023-05-22T01:36:31;94647.22;;;15.21;85.04
6343;BME280;3204;42.698;23.298;2023-05-22T01:38:59;94656.34;;;15.13;85.57
6343;BME280;3204;42.698;23.298;2023-05-22T01:41:28;94652.56;;;15.17;85.34
6343;BME280;3204;42.698;23.298;2023-05-22T01:43:54;94653.59;;;15.25;84.60
6343;BME280;3204;42.698;23.298;2023-05-22T01:46:20;94648.94;;;15.13;85.22
6343;BME280;3204;42.698;23.298;2023-05-22T01:48:45;94647.00;;;15.14;85.19
6343;BME280;3204;42.698;23.298;2023-05-22T01:51:18;94645.41;;;15.13;85.75
6343;BME280;3204;42.698;23.298;2023-05-22T01:53:52;94649.72;;;15.14;85.72
6343;BME280;3204;42.698;23.298;2023-05-22T01:56:29;94648.47;;;15.11;85.62
6343;BME280;3204;42.698;23.298;2023-05-22T02:01:40;94642.09;;;15.07;85.51
6343;BME280;3204;42.698;23.298;2023-05-22T02:04:08;94643.84;;;15.00;85.78
6343;BME280;3204;42.698;23.298;2023-05-22T02:06:34;94641.22;;;15.03;85.72
6343;BME280;3204;42.698;23.298;2023-05-22T02:09:00;94640.88;;;15.05;85.75
6343;BME280;3204;42.698;23.298;2023-05-22T02:11:28;94640.88;;;15.05;85.53
6343;BME280;3204;42.698;23.298;2023-05-22T02:13:54;94645.66;;;14.96;86.00
6343;BME280;3204;42.698;23.298;2023-05-22T02:16:21;94650.22;;;14.92;85.80
6343;BME280;3204;42.698;23.298;2023-05-22T02:18:47;94644.63;;;14.88;86.28
6343;BME280;3204;42.698;23.298;2023-05-22T02:21:12;94645.09;;;14.90;86.25
6343;BME280;3204;42.698;23.298;2023-05-22T02:23:38;94642.94;;;14.84;86.34
6343;BME280;3204;42.698;23.298;2023-05-22T02:26:04;94649.41;;;14.79;86.42
6343;BME280;3204;42.698;23.298;2023-05-22T02:28:30;94648.06;;;14.73;86.53
6343;BME280;3204;42.698;23.298;2023-05-22T02:30:56;94651.50;;;14.70;86.87
6343;BME280;3204;42.698;23.298;2023-05-22T02:33:21;94645.47;;;14.65;87.41
6343;BME280;3204;42.698;23.298;2023-05-22T02:35:47;94646.94;;;14.62;87.17
6343;BME280;3204;42.698;23.298;2023-05-22T02:38:12;94650.66;;;14.58;87.25
6343;BME280;3204;42.698;23.298;2023-05-22T02:40:38;94646.59;;;14.52;87.76
6343;BME280;3204;42.698;23.298;2023-05-22T02:43:03;94650.69;;;14.46;88.01
6343;BME280;3204;42.698;23.298;2023-05-22T02:45:30;94644.56;;;14.49;87.80
6343;BME280;3204;42.698;23.298;2023-05-22T02:47:55;94643.38;;;14.38;87.98
6343;BME280;3204;42.698;23.298;2023-05-22T02:50:21;94643.94;;;14.31;88.24
6343;BME280;3204;42.698;23.298;2023-05-22T02:52:46;94638.38;;;14.28;88.73
6343;BME280;3204;42.698;23.298;2023-05-22T02:55:11;94642.13;;;14.23;88.74
6343;BME280;3204;42.698;23.298;2023-05-22T02:57:37;94639.41;;;14.23;88.48
6343;BME280;3204;42.698;23.298;2023-05-22T03:00:03;94642.66;;;14.17;89.20
6343;BME280;3204;42.698;23.298;2023-05-22T03:02:31;94643.31;;;14.14;89.21
6343;BME280;3204;42.698;23.298;2023-05-22T03:04:57;94645.13;;;14.10;89.25
6343;BME280;3204;42.698;23.298;2023-05-22T03:07:25;94645.13;;;14.10;89.55
6343;BME280;3204;42.698;23.298;2023-05-22T03:09:53;94643.53;;;14.09;89.42
6343;BME280;3204;42.698;23.298;2023-05-22T03:12:19;94644.91;;;14.15;89.23
6343;BME280;3204;42.698;23.298;2023-05-22T03:14:44;94646.06;;;14.14;89.33
6343;BME280;3204;42.698;23.298;2023-05-22T03:17:09;94646.50;;;14.04;89.31
6343;BME280;3204;42.698;23.298;2023-05-22T03:19:35;94643.16;;;13.98;89.85
6343;BME280;3204;42.698;23.298;2023-05-22T03:22:00;94645.91;;;13.98;89.77
6343;BME280;3204;42.698;23.298;2023-05-22T03:24:26;94638.75;;;13.94;89.71
6343;BME280;3204;42.698;23.298;2023-05-22T03:26:52;94634.09;;;13.94;90.29
6343;BME280;3204;42.698;23.298;2023-05-22T03:29:17;94634.44;;;13.93;90.03
6343;BME280;3204;42.698;23.298;2023-05-22T03:31:42;94634.22;;;13.98;89.91
6343;BME280;3204;42.698;23.298;2023-05-22T03:34:08;94643.75;;;14.04;89.65
6343;BME280;3204;42.698;23.298;2023-05-22T03:36:33;94644.19;;;13.94;90.28
6343;BME280;3204;42.698;23.298;2023-05-22T03:38:59;94637.16;;;13.93;90.13
6343;BME280;3204;42.698;23.298;2023-05-22T03:41:25;94642.75;;;14.08;89.33
6343;BME280;3204;42.698;23.298;2023-05-22T03:43:51;94641.47;;;13.94;90.08
6343;BME280;3204;42.698;23.298;2023-05-22T03:46:16;94643.06;;;13.95;90.10
6343;BME280;3204;42.698;23.298;2023-05-22T03:48:41;94644.19;;;13.94;90.42
6343;BME280;3204;42.698;23.298;2023-05-22T03:51:07;94645.34;;;13.93;90.61
6343;BME280;3204;42.698;23.298;2023-05-22T03:53:32;94648.78;;;14.02;90.41
6343;BME280;3204;42.698;23.298;2023-05-22T03:55:58;94647.84;;;13.98;90.02
6343;BME280;3204;42.698;23.298;2023-05-22T03:58:23;94654.88;;;13.99;90.43
6343;BME280;3204;42.698;23.298;2023-05-22T04:00:55;94658.66;;;14.06;90.52
6343;BME280;3204;42.698;23.298;2023-05-22T04:03:25;94647.41;;;14.08;89.90
6343;BME280;3204;42.698;23.298;2023-05-22T04:05:51;94652.19;;;14.11;89.90
6343;BME280;3204;42.698;23.298;2023-05-22T04:08:16;94644.22;;;14.06;89.93
6343;BME280;3204;42.698;23.298;2023-05-22T04:10:42;94654.44;;;14.09;90.21
6343;BME280;3204;42.698;23.298;2023-05-22T04:13:11;94654.44;;;14.09;90.24
6343;BME280;3204;42.698;23.298;2023-05-22T04:15:37;94655.50;;;14.16;89.95
6343;BME280;3204;42.698;23.298;2023-05-22T04:18:02;94650.19;;;14.20;90.81
6343;BME280;3204;42.698;23.298;2023-05-22T04:20:28;94652.34;;;14.26;90.56
6343;BME280;3204;42.698;23.298;2023-05-22T04:22:53;94647.47;;;14.32;90.17
6343;BME280;3204;42.698;23.298;2023-05-22T04:25:20;94651.69;;;14.41;89.82
6343;BME280;3204;42.698;23.298;2023-05-22T04:27:45;94647.28;;;14.49;90.05
6343;BME280;3204;42.698;23.298;2023-05-22T04:30:13;94645.00;;;14.51;89.63
6343;BME280;3204;42.698;23.298;2023-05-22T04:32:41;94661.38;;;14.63;89.08
6343;BME280;3204;42.698;23.298;2023-05-22T04:35:08;94660.72;;;14.78;88.68
6343;BME280;3204;42.698;23.298;2023-05-22T04:37:34;94667.84;;;14.82;89.28
6343;BME280;3204;42.698;23.298;2023-05-22T04:40:00;94663.75;;;14.88;88.94
6343;BME280;3204;42.698;23.298;2023-05-22T04:42:32;94669.22;;;15.00;89.03
6343;BME280;3204;42.698;23.298;2023-05-22T04:44:58;94665.69;;;15.12;88.10
6343;BME280;3204;42.698;23.298;2023-05-22T04:47:24;94668.50;;;15.27;87.40
6343;BME280;3204;42.698;23.298;2023-05-22T04:49:49;94672.13;;;15.43;86.32
6343;BME280;3204;42.698;23.298;2023-05-22T04:52:16;94673.22;;;15.54;86.07
6343;BME280;3204;42.698;23.298;2023-05-22T04:54:41;94672.31;;;15.62;86.16
6343;BME280;3204;42.698;23.298;2023-05-22T04:57:08;94670.78;;;15.77;85.14
6343;BME280;3204;42.698;23.298;2023-05-22T04:59:35;94672.44;;;15.93;84.43
6343;BME280;3204;42.698;23.298;2023-05-22T05:02:04;94671.13;;;16.03;83.91
6343;BME280;3204;42.698;23.298;2023-05-22T05:04:30;94674.16;;;16.13;83.59
6343;BME280;3204;42.698;23.298;2023-05-22T05:06:56;94673.72;;;16.27;82.61
6343;BME280;3204;42.698;23.298;2023-05-22T05:09:22;94674.34;;;16.36;82.29
6343;BME280;3204;42.698;23.298;2023-05-22T05:11:48;94681.72;;;16.48;81.64
6343;BME280;3204;42.698;23.298;2023-05-22T05:14:15;94682.00;;;16.58;81.64
6343;BME280;3204;42.698;23.298;2023-05-22T05:16:40;94683.06;;;16.69;80.97
6343;BME280;3204;42.698;23.298;2023-05-22T05:19:06;94679.88;;;16.83;80.56
6343;BME280;3204;42.698;23.298;2023-05-22T05:21:31;94685.88;;;16.88;79.82
6343;BME280;3204;42.698;23.298;2023-05-22T05:23:56;94684.81;;;16.92;79.58
6343;BME280;3204;42.698;23.298;2023-05-22T05:26:22;94675.53;;;16.97;79.58
6343;BME280;3204;42.698;23.298;2023-05-22T05:28:49;94679.25;;;17.05;79.15
6343;BME280;3204;42.698;23.298;2023-05-22T05:31:14;94680.56;;;17.11;78.86
6343;BME280;3204;42.698;23.298;2023-05-22T05:33:41;94688.41;;;17.28;77.82
6343;BME280;3204;42.698;23.298;2023-05-22T05:36:07;94687.03;;;17.37;76.81
6343;BME280;3204;42.698;23.298;2023-05-22T05:38:32;94680.69;;;17.33;77.22
6343;BME280;3204;42.698;23.298;2023-05-22T05:40:58;94682.94;;;17.43;77.03
6343;BME280;3204;42.698;23.298;2023-05-22T05:43:23;94691.81;;;17.56;76.13
6343;BME280;3204;42.698;23.298;2023-05-22T05:45:49;94687.88;;;17.72;75.02
6343;BME280;3204;42.698;23.298;2023-05-22T05:48:15;94693.44;;;17.76;75.19
6343;BME280;3204;42.698;23.298;2023-05-22T05:50:41;94685.91;;;17.92;73.42
6343;BME280;3204;42.698;23.298;2023-05-22T05:53:07;94687.00;;;17.87;73.47
6343;BME280;3204;42.698;23.298;2023-05-22T05:55:32;94687.78;;;17.88;73.65
6343;BME280;3204;42.698;23.298;2023-05-22T05:57:58;94695.81;;;17.96;73.43
6343;BME280;3204;42.698;23.298;2023-05-22T06:00:24;94691.03;;;18.31;71.71
6343;BME280;3204;42.698;23.298;2023-05-22T06:02:50;94684.38;;;18.13;72.13
6343;BME280;3204;42.698;23.298;2023-05-22T06:05:15;94689.00;;;18.28;71.59
6343;BME280;3204;42.698;23.298;2023-05-22T06:07:43;94685.53;;;18.31;71.41
6343;BME280;3204;42.698;23.298;2023-05-22T06:10:10;94690.59;;;18.48;71.22
6343;BME280;3204;42.698;23.298;2023-05-22T06:12:36;94688.91;;;18.63;70.20
6343;BME280;3204;42.698;23.298;2023-05-22T06:15:03;94688.28;;;18.73;69.27
6343;BME280;3204;42.698;23.298;2023-05-22T06:17:29;94691.16;;;18.80;68.89
6343;BME280;3204;42.698;23.298;2023-05-22T06:19:55;94691.47;;;18.97;67.96
6343;BME280;3204;42.698;23.298;2023-05-22T06:22:21;94696.03;;;19.12;67.51
6343;BME280;3204;42.698;23.298;2023-05-22T06:24:52;94693.66;;;19.33;66.17
6343;BME280;3204;42.698;23.298;2023-05-22T06:27:22;94693.13;;;19.50;66.17
6343;BME280;3204;42.698;23.298;2023-05-22T06:29:48;94698.16;;;19.74;66.01
6343;BME280;3204;42.698;23.298;2023-05-22T06:32:14;94694.50;;;19.93;63.81
6343;BME280;3204;42.698;23.298;2023-05-22T06:34:39;94697.34;;;20.00;63.01
6343;BME280;3204;42.698;23.298;2023-05-22T06:37:05;94694.41;;;19.86;62.90
6343;BME280;3204;42.698;23.298;2023-05-22T06:39:31;94695.66;;;19.92;63.27
6343;BME280;3204;42.698;23.298;2023-05-22T06:41:56;94690.72;;;20.04;62.83
6343;BME280;3204;42.698;23.298;2023-05-22T06:44:22;94687.22;;;20.07;62.39
6343;BME280;3204;42.698;23.298;2023-05-22T06:46:50;94691.56;;;20.08;61.43
6343;BME280;3204;42.698;23.298;2023-05-22T06:49:15;94690.06;;;19.85;62.27
6343;BME280;3204;42.698;23.298;2023-05-22T06:51:41;94682.94;;;19.80;62.58
6343;BME280;3204;42.698;23.298;2023-05-22T06:54:07;94694.16;;;19.68;63.27
6343;BME280;3204;42.698;23.298;2023-05-22T06:56:33;94687.09;;;19.67;63.04
6343;BME280;3204;42.698;23.298;2023-05-22T06:58:59;94680.69;;;19.60;63.01
6343;BME280;3204;42.698;23.298;2023-05-22T07:01:24;94685.34;;;19.56;62.73
6343;BME280;3204;42.698;23.298;2023-05-22T07:03:50;94684.78;;;19.73;62.26
6343;BME280;3204;42.698;23.298;2023-05-22T07:06:16;94692.59;;;19.67;61.97
6343;BME280;3204;42.698;23.298;2023-05-22T07:08:42;94694.84;;;19.62;62.05
6343;BME280;3204;42.698;23.298;2023-05-22T07:11:07;94691.94;;;19.77;62.55
6343;BME280;3204;42.698;23.298;2023-05-22T07:13:33;94697.41;;;19.74;61.15
6343;BME280;3204;42.698;23.298;2023-05-22T07:15:59;94689.16;;;19.48;61.33
6343;BME280;3204;42.698;23.298;2023-05-22T07:18:24;94694.59;;;19.44;61.34
6343;BME280;3204;42.698;23.298;2023-05-22T07:20:50;94689.28;;;19.55;61.68
6343;BME280;3204;42.698;23.298;2023-05-22T07:23:15;94694.13;;;19.65;60.81
6343;BME280;3204;42.698;23.298;2023-05-22T07:25:41;94691.81;;;19.70;60.71
6343;BME280;3204;42.698;23.298;2023-05-22T07:28:07;94696.19;;;19.71;60.03
6343;BME280;3204;42.698;23.298;2023-05-22T07:30:35;94686.94;;;19.57;59.23
6343;BME280;3204;42.698;23.298;2023-05-22T07:33:01;94686.88;;;19.53;59.41
6343;BME280;3204;42.698;23.298;2023-05-22T07:35:27;94686.03;;;19.49;60.58
6343;BME280;3204;42.698;23.298;2023-05-22T07:37:52;94681.91;;;19.62;60.25
6343;BME280;3204;42.698;23.298;2023-05-22T07:40:18;94684.38;;;20.00;59.62
6343;BME280;3204;42.698;23.298;2023-05-22T07:42:43;94681.56;;;20.26;58.48
6343;BME280;3204;42.698;23.298;2023-05-22T07:45:09;94677.91;;;20.52;59.55
6343;BME280;3204;42.698;23.298;2023-05-22T07:47:35;94691.38;;;20.60;57.51
6343;BME280;3204;42.698;23.298;2023-05-22T07:50:00;94686.03;;;20.74;56.70
6343;BME280;3204;42.698;23.298;2023-05-22T07:52:28;94682.56;;;20.84;57.60
6343;BME280;3204;42.698;23.298;2023-05-22T07:54:54;94677.03;;;21.21;56.16
6343;BME280;3204;42.698;23.298;2023-05-22T07:57:20;94679.91;;;21.38;56.56
6343;BME280;3204;42.698;23.298;2023-05-22T07:59:47;94683.44;;;21.39;56.56
6343;BME280;3204;42.698;23.298;2023-05-22T08:02:13;94683.97;;;21.51;54.59
6343;BME280;3204;42.698;23.298;2023-05-22T08:04:38;94676.16;;;21.64;54.57
6343;BME280;3204;42.698;23.298;2023-05-22T08:07:05;94686.59;;;21.95;54.36
6343;BME280;3204;42.698;23.298;2023-05-22T08:09:30;94684.72;;;22.06;53.81
6343;BME280;3204;42.698;23.298;2023-05-22T08:11:56;94676.72;;;21.90;53.52
6343;BME280;3204;42.698;23.298;2023-05-22T08:14:22;94676.00;;;22.00;53.81
6343;BME280;3204;42.698;23.298;2023-05-22T08:16:47;94685.06;;;22.01;53.23
6343;BME280;3204;42.698;23.298;2023-05-22T08:19:13;94679.31;;;21.66;54.15
6343;BME280;3204;42.698;23.298;2023-05-22T08:21:39;94678.69;;;21.32;54.12
6343;BME280;3204;42.698;23.298;2023-05-22T08:24:06;94673.97;;;21.36;53.72
6343;BME280;3204;42.698;23.298;2023-05-22T08:26:31;94679.00;;;21.74;53.48
6343;BME280;3204;42.698;23.298;2023-05-22T08:28:58;94680.63;;;21.86;52.79
6343;BME280;3204;42.698;23.298;2023-05-22T08:31:24;94677.34;;;21.66;52.13
6343;BME280;3204;42.698;23.298;2023-05-22T08:33:49;94682.53;;;21.71;52.89
6343;BME280;3204;42.698;23.298;2023-05-22T08:36:15;94676.53;;;21.66;52.63
6343;BME280;3204;42.698;23.298;2023-05-22T08:38:41;94684.59;;;21.88;53.52
6343;BME280;3204;42.698;23.298;2023-05-22T08:41:07;94672.72;;;21.81;53.30
6343;BME280;3204;42.698;23.298;2023-05-22T08:43:32;94675.59;;;21.98;52.74
6343;BME280;3204;42.698;23.298;2023-05-22T08:46:04;94676.00;;;22.07;52.61
6343;BME280;3204;42.698;23.298;2023-05-22T08:48:32;94681.16;;;22.05;49.74
6343;BME280;3204;42.698;23.298;2023-05-22T08:51:05;94677.94;;;22.00;48.04
6343;BME280;3204;42.698;23.298;2023-05-22T08:53:35;94673.59;;;21.92;47.30
6343;BME280;3204;42.698;23.298;2023-05-22T08:56:02;94668.16;;;22.13;47.33
6343;BME280;3204;42.698;23.298;2023-05-22T08:58:31;94661.88;;;22.19;47.76
6343;BME280;3204;42.698;23.298;2023-05-22T09:00:57;94668.22;;;22.27;46.97
6343;BME280;3204;42.698;23.298;2023-05-22T09:03:26;94675.63;;;22.09;47.77
6343;BME280;3204;42.698;23.298;2023-05-22T09:05:53;94666.63;;;22.29;48.33
6343;BME280;3204;42.698;23.298;2023-05-22T09:08:18;94659.09;;;22.26;47.54
6343;BME280;3204;42.698;23.298;2023-05-22T09:10:44;94676.94;;;22.36;47.35
6343;BME280;3204;42.698;23.298;2023-05-22T09:13:10;94660.78;;;22.41;46.66
6343;BME280;3204;42.698;23.298;2023-05-22T09:15:47;94666.75;;;22.64;45.68
6343;BME280;3204;42.698;23.298;2023-05-22T09:18:12;94660.34;;;22.36;45.89
6343;BME280;3204;42.698;23.298;2023-05-22T09:20:38;94659.16;;;22.37;46.07
6343;BME280;3204;42.698;23.298;2023-05-22T09:23:15;94655.47;;;22.01;47.16
6343;BME280;3204;42.698;23.298;2023-05-22T09:25:46;94661.03;;;22.08;48.00
6343;BME280;3204;42.698;23.298;2023-05-22T09:28:12;94657.47;;;22.04;47.97
6343;BME280;3204;42.698;23.298;2023-05-22T09:30:38;94660.28;;;22.22;49.65
6343;BME280;3204;42.698;23.298;2023-05-22T09:33:04;94668.50;;;22.04;49.94
6343;BME280;3204;42.698;23.298;2023-05-22T09:35:34;94668.75;;;21.78;51.22
6343;BME280;3204;42.698;23.298;2023-05-22T09:38:00;94666.38;;;21.73;51.31
6343;BME280;3204;42.698;23.298;2023-05-22T09:40:26;94660.97;;;21.98;52.29
6343;BME280;3204;42.698;23.298;2023-05-22T09:42:53;94665.25;;;21.88;51.29
6343;BME280;3204;42.698;23.298;2023-05-22T09:45:20;94657.84;;;21.99;51.04
6343;BME280;3204;42.698;23.298;2023-05-22T09:47:48;94660.97;;;21.98;51.29
6343;BME280;3204;42.698;23.298;2023-05-22T09:50:14;94662.47;;;21.78;51.82
6343;BME280;3204;42.698;23.298;2023-05-22T09:52:43;94662.38;;;21.67;53.08
6343;BME280;3204;42.698;23.298;2023-05-22T09:55:09;94663.28;;;21.31;52.95
6343;BME280;3204;42.698;23.298;2023-05-22T09:57:43;94656.81;;;21.10;54.08
6343;BME280;3204;42.698;23.298;2023-05-22T10:00:13;94666.38;;;21.19;54.63
6343;BME280;3204;42.698;23.298;2023-05-22T10:02:49;94667.91;;;20.73;54.21
6343;BME280;3204;42.698;23.298;2023-05-22T10:05:17;94648.19;;;20.71;54.56
6343;BME280;3204;42.698;23.298;2023-05-22T10:07:50;94662.16;;;20.89;54.72
6343;BME280;3204;42.698;23.298;2023-05-22T10:10:19;94658.69;;;20.95;54.79
6343;BME280;3204;42.698;23.298;2023-05-22T10:12:56;94665.44;;;21.01;55.63
6343;BME280;3204;42.698;23.298;2023-05-22T10:15:22;94669.97;;;20.83;55.85
6343;BME280;3204;42.698;23.298;2023-05-22T10:17:48;94665.47;;;20.65;56.76
6343;BME280;3204;42.698;23.298;2023-05-22T10:20:15;94660.22;;;20.53;56.74
6343;BME280;3204;42.698;23.298;2023-05-22T10:22:41;94655.84;;;20.48;57.49
6343;BME280;3204;42.698;23.298;2023-05-22T10:25:07;94665.94;;;20.74;57.14
6343;BME280;3204;42.698;23.298;2023-05-22T10:27:33;94653.75;;;20.75;56.28
6343;BME280;3204;42.698;23.298;2023-05-22T10:33:06;94666.91;;;20.52;57.04
6343;BME280;3204;42.698;23.298;2023-05-22T10:35:49;94668.09;;;20.18;58.71
6343;BME280;3204;42.698;23.298;2023-05-22T10:38:49;94671.59;;;19.85;62.01
6343;BME280;3204;42.698;23.298;2023-05-22T10:41:16;94669.47;;;19.75;64.46
6343;BME280;3204;42.698;23.298;2023-05-22T10:43:43;94682.47;;;19.75;65.36
6343;BME280;3204;42.698;23.298;2023-05-22T10:46:12;94683.34;;;19.82;65.23
6343;BME280;3204;42.698;23.298;2023-05-22T10:48:39;94691.97;;;19.81;67.32
6343;BME280;3204;42.698;23.298;2023-05-22T10:51:06;94695.00;;;19.72;66.26
6343;BME280;3204;42.698;23.298;2023-05-22T10:53:32;94677.00;;;19.78;67.39
6343;BME280;3204;42.698;23.298;2023-05-22T10:55:59;94676.91;;;19.71;69.32
6343;BME280;3204;42.698;23.298;2023-05-22T10:58:33;94665.63;;;19.80;70.84
6343;BME280;3204;42.698;23.298;2023-05-22T11:01:17;94672.53;;;19.96;68.36
6343;BME280;3204;42.698;23.298;2023-05-22T11:09:45;94653.28;;;20.29;67.58
6343;BME280;3204;42.698;23.298;2023-05-22T11:12:24;94665.16;;;20.37;67.11
6343;BME280;3204;42.698;23.298;2023-05-22T11:15:08;94656.00;;;20.62;68.85
6343;BME280;3204;42.698;23.298;2023-05-22T11:17:40;94648.34;;;20.89;66.63
6343;BME280;3204;42.698;23.298;2023-05-22T11:20:20;94656.06;;;21.13;65.73
6343;BME280;3204;42.698;23.298;2023-05-22T11:22:54;94647.53;;;21.32;65.14
6343;BME280;3204;42.698;23.298;2023-05-22T11:25:21;94650.06;;;21.54;65.05
6343;BME280;3204;42.698;23.298;2023-05-22T11:27:47;94657.50;;;21.50;62.97
6343;BME280;3204;42.698;23.298;2023-05-22T11:30:13;94662.19;;;21.39;61.54
6343;BME280;3204;42.698;23.298;2023-05-22T11:32:41;94676.28;;;21.27;59.91
6343;BME280;3204;42.698;23.298;2023-05-22T11:35:13;94695.47;;;20.73;60.39
6343;BME280;3204;42.698;23.298;2023-05-22T11:37:40;94718.31;;;20.37;62.75
6343;BME280;3204;42.698;23.298;2023-05-22T11:40:06;94708.94;;;19.57;66.35
6343;BME280;3204;42.698;23.298;2023-05-22T11:42:32;94724.47;;;19.42;66.18
6343;BME280;3204;42.698;23.298;2023-05-22T11:44:58;94720.47;;;19.17;67.60
6343;BME280;3204;42.698;23.298;2023-05-22T11:47:25;94713.09;;;18.76;68.42
6343;BME280;3204;42.698;23.298;2023-05-22T11:49:52;94708.94;;;18.63;68.00
6343;BME280;3204;42.698;23.298;2023-05-22T11:52:18;94715.28;;;18.67;69.76
6343;BME280;3204;42.698;23.298;2023-05-22T11:54:47;94707.91;;;18.71;68.21
6343;BME280;3204;42.698;23.298;2023-05-22T11:57:13;94710.47;;;18.61;68.00
6343;BME280;3204;42.698;23.298;2023-05-22T11:59:39;94701.72;;;18.55;68.30
6343;BME280;3204;42.698;23.298;2023-05-22T12:02:06;94714.72;;;18.58;68.18
6343;BME280;3204;42.698;23.298;2023-05-22T12:04:32;94705.16;;;18.71;68.91
6343;BME280;3204;42.698;23.298;2023-05-22T12:06:57;94705.69;;;18.58;70.59
6343;BME280;3204;42.698;23.298;2023-05-22T12:09:25;94709.22;;;18.58;71.46
6343;BME280;3204;42.698;23.298;2023-05-22T12:11:54;94698.91;;;18.52;71.82
6343;BME280;3204;42.698;23.298;2023-05-22T12:14:24;94699.16;;;18.66;69.39
6343;BME280;3204;42.698;23.298;2023-05-22T12:16:50;94707.25;;;18.59;69.78
6343;BME280;3204;42.698;23.298;2023-05-22T12:19:17;94702.50;;;18.56;70.65
6343;BME280;3204;42.698;23.298;2023-05-22T12:21:43;94697.63;;;18.68;70.23
6343;BME280;3204;42.698;23.298;2023-05-22T12:24:09;94697.88;;;18.60;69.64
6343;BME280;3204;42.698;23.298;2023-05-22T12:26:35;94696.75;;;18.42;69.07
6343;BME280;3204;42.698;23.298;2023-05-22T12:29:01;94689.44;;;18.30;71.13
6343;BME280;3204;42.698;23.298;2023-05-22T12:31:33;94689.59;;;18.37;71.13
6343;BME280;3204;42.698;23.298;2023-05-22T12:34:00;94689.28;;;18.42;72.57
6343;BME280;3204;42.698;23.298;2023-05-22T12:36:39;94681.41;;;18.60;71.29
6343;BME280;3204;42.698;23.298;2023-05-22T12:39:09;94683.84;;;18.65;71.84
6343;BME280;3204;42.698;23.298;2023-05-22T12:41:36;94689.09;;;18.73;71.32
6343;BME280;3204;42.698;23.298;2023-05-22T12:44:01;94683.78;;;18.84;71.70
6343;BME280;3204;42.698;23.298;2023-05-22T12:46:32;94679.56;;;18.90;72.22
6343;BME280;3204;42.698;23.298;2023-05-22T12:48:58;94680.53;;;19.01;70.79
6343;BME280;3204;42.698;23.298;2023-05-22T12:51:26;94680.81;;;18.96;71.99
6343;BME280;3204;42.698;23.298;2023-05-22T12:53:54;94683.34;;;19.04;71.61
6343;BME280;3204;42.698;23.298;2023-05-22T12:56:21;94682.19;;;19.05;71.01
6343;BME280;3204;42.698;23.298;2023-05-22T12:58:46;94688.31;;;18.95;70.92
6343;BME280;3204;42.698;23.298;2023-05-22T13:01:12;94689.34;;;18.87;68.20
6343;BME280;3204;42.698;23.298;2023-05-22T13:03:37;94692.44;;;19.08;69.50
6343;BME280;3204;42.698;23.298;2023-05-22T13:06:03;94688.78;;;19.01;69.71
6343;BME280;3204;42.698;23.298;2023-05-22T13:08:29;94672.72;;;19.03;67.91
6343;BME280;3204;42.698;23.298;2023-05-22T13:10:54;94669.97;;;19.03;66.65
6343;BME280;3204;42.698;23.298;2023-05-22T13:13:20;94668.75;;;19.00;67.59
6343;BME280;3204;42.698;23.298;2023-05-22T13:15:45;94651.19;;;19.08;67.23
6343;BME280;3204;42.698;23.298;2023-05-22T13:18:11;94663.03;;;19.12;65.29
6343;BME280;3204;42.698;23.298;2023-05-22T13:20:37;94662.00;;;19.20;67.14
6343;BME280;3204;42.698;23.298;2023-05-22T13:23:03;94654.09;;;19.19;67.98
6343;BME280;3204;42.698;23.298;2023-05-22T13:25:29;94641.09;;;19.16;68.90
6343;BME280;3204;42.698;23.298;2023-05-22T13:27:54;94640.06;;;19.24;67.03
6343;BME280;3204;42.698;23.298;2023-05-22T13:30:20;94632.31;;;19.29;63.46
6343;BME280;3204;42.698;23.298;2023-05-22T13:32:45;94629.63;;;19.36;64.41